sensor_id;sensor_type;location;lat;lon;timestamp;pressure;altitude;pressure_sealevel;temperature;humidity
80938;BME280;70395;51.382;7.074;2023-07-28T00:02:11;99392.75;;;19.92;69.78
80938;BME280;70395;51.382;7.074;2023-07-28T00:04:38;99389.22;;;19.91;70.10
80938;BME280;70395;51.382;7.074;2023-07-28T00:07:04;99387.56;;;19.90;70.32
80938;BME280;70395;51.382;7.074;2023-07-28T00:09:30;99384.84;;;19.90;70.09
80938;BME280;70395;51.382;7.074;2023-07-28T00:11:58;99389.44;;;19.90;69.88
80938;BME280;70395;51.382;7.074;2023-07-28T00:14:25;99386.97;;;19.88;70.29
80938;BME280;70395;51.382;7.074;2023-07-28T00:16:52;99380.69;;;19.88;70.28
80938;BME280;70395;51.382;7.074;2023-07-28T00:19:19;99387.78;;;19.89;70.34
80938;BME280;70395;51.382;7.074;2023-07-28T00:21:49;99382.13;;;19.90;70.25
80938;BME280;70395;51.382;7.074;2023-07-28T00:24:17;99372.28;;;19.89;70.42
80938;BME280;70395;51.382;7.074;2023-07-28T00:26:44;99377.72;;;19.89;70.25
80938;BME280;70395;51.382;7.074;2023-07-28T00:29:10;99384.47;;;19.87;70.23
80938;BME280;70395;51.382;7.074;2023-07-28T00:31:36;99381.97;;;19.85;70.42
80938;BME280;70395;51.382;7.074;2023-07-28T00:34:02;99383.03;;;19.84;70.63
80938;BME280;70395;51.382;7.074;2023-07-28T00:36:29;99375.72;;;19.85;70.53
80938;BME280;70395;51.382;7.074;2023-07-28T00:38:55;99377.84;;;19.83;70.41
80938;BME280;70395;51.382;7.074;2023-07-28T00:41:21;99371.78;;;19.80;70.47
80938;BME280;70395;51.382;7.074;2023-07-28T00:43:46;99373.09;;;19.78;70.87
80938;BME280;70395;51.382;7.074;2023-07-28T00:46:14;99371.41;;;19.77;70.86
80938;BME280;70395;51.382;7.074;2023-07-28T00:48:40;99375.81;;;19.78;70.62
80938;BME280;70395;51.382;7.074;2023-07-28T00:51:07;99372.00;;;19.79;70.41
80938;BME280;70395;51.382;7.074;2023-07-28T00:53:34;99375.31;;;19.81;70.90
80938;BME280;70395;51.382;7.074;2023-07-28T00:56:01;99376.16;;;19.81;70.60
80938;BME280;70395;51.382;7.074;2023-07-28T00:58:28;99371.78;;;19.80;70.85
80938;BME280;70395;51.382;7.074;2023-07-28T01:00:53;99379.13;;;19.80;70.47
80938;BME280;70395;51.382;7.074;2023-07-28T01:03:21;99376.66;;;19.78;70.65
80938;BME280;70395;51.382;7.074;2023-07-28T01:08:46;99372.50;;;19.76;70.85
80938;BME280;70395;51.382;7.074;2023-07-28T01:11:14;99374.53;;;19.80;70.85
80938;BME280;70395;51.382;7.074;2023-07-28T01:13:40;99368.84;;;19.82;70.54
80938;BME280;70395;51.382;7.074;2023-07-28T01:16:08;99380.31;;;19.84;70.65
80938;BME280;70395;51.382;7.074;2023-07-28T01:18:34;99377.13;;;19.87;70.22
80938;BME280;70395;51.382;7.074;2023-07-28T01:21:05;99385.06;;;19.89;70.61
80938;BME280;70395;51.382;7.074;2023-07-28T01:24:49;99375.94;;;19.83;70.64
80938;BME280;70395;51.382;7.074;2023-07-28T01:27:12;99362.50;;;19.88;70.61
80938;BME280;70395;51.382;7.074;2023-07-28T01:29:38;99367.69;;;19.90;70.77
80938;BME280;70395;51.382;7.074;2023-07-28T01:32:05;99368.53;;;19.90;70.42
80938;BME280;70395;51.382;7.074;2023-07-28T01:34:31;99361.41;;;19.89;70.44
80938;BME280;70395;51.382;7.074;2023-07-28T01:36:56;99364.38;;;19.88;70.60
80938;BME280;70395;51.382;7.074;2023-07-28T01:39:22;99369.81;;;19.88;70.73
80938;BME280;70395;51.382;7.074;2023-07-28T01:41:48;99366.25;;;19.87;70.66
80938;BME280;70395;51.382;7.074;2023-07-28T01:44:14;99362.69;;;19.87;70.70
80938;BME280;70395;51.382;7.074;2023-07-28T01:46:40;99367.31;;;19.86;70.83
80938;BME280;70395;51.382;7.074;2023-07-28T01:49:05;99368.97;;;19.87;70.96
80938;BME280;70395;51.382;7.074;2023-07-28T01:51:31;99367.09;;;19.88;70.73
80938;BME280;70395;51.382;7.074;2023-07-28T01:53:57;99372.88;;;19.91;70.96
80938;BME280;70395;51.382;7.074;2023-07-28T01:56:23;99372.88;;;19.91;70.49
80938;BME280;70395;51.382;7.074;2023-07-28T01:58:48;99377.28;;;19.92;70.60
80938;BME280;70395;51.382;7.074;2023-07-28T02:01:14;99367.00;;;19.95;70.48
80938;BME280;70395;51.382;7.074;2023-07-28T02:03:40;99366.16;;;19.94;70.59
80938;BME280;70395;51.382;7.074;2023-07-28T02:06:05;99367.59;;;19.97;70.46
80938;BME280;70395;51.382;7.074;2023-07-28T02:08:31;99368.41;;;19.97;70.45
80938;BME280;70395;51.382;7.074;2023-07-28T02:10:57;99371.16;;;19.97;70.63
80938;BME280;70395;51.382;7.074;2023-07-28T02:13:23;99363.81;;;19.98;70.80
80938;BME280;70395;51.382;7.074;2023-07-28T02:15:48;99365.69;;;19.97;70.57
80938;BME280;70395;51.382;7.074;2023-07-28T02:18:14;99361.09;;;19.98;70.78
80938;BME280;70395;51.382;7.074;2023-07-28T02:20:40;99365.47;;;19.99;70.30
80938;BME280;70395;51.382;7.074;2023-07-28T02:23:06;99367.13;;;20.00;70.85
80938;BME280;70395;51.382;7.074;2023-07-28T02:25:31;99362.53;;;20.00;70.77
80938;BME280;70395;51.382;7.074;2023-07-28T02:27:57;99368.56;;;20.02;70.50
80938;BME280;70395;51.382;7.074;2023-07-28T02:30:23;99369.16;;;20.05;70.59
80938;BME280;70395;51.382;7.074;2023-07-28T02:32:49;99365.59;;;20.04;70.25
80938;BME280;70395;51.382;7.074;2023-07-28T02:35:15;99368.31;;;20.04;70.61
80938;BME280;70395;51.382;7.074;2023-07-28T02:37:40;99370.00;;;20.05;70.27
80938;BME280;70395;51.382;7.074;2023-07-28T02:40:07;99376.22;;;20.06;70.65
80938;BME280;70395;51.382;7.074;2023-07-28T02:42:33;99373.50;;;20.06;70.30
80938;BME280;70395;51.382;7.074;2023-07-28T02:45:02;99377.91;;;20.07;70.37
80938;BME280;70395;51.382;7.074;2023-07-28T02:47:28;99381.47;;;20.07;70.14
80938;BME280;70395;51.382;7.074;2023-07-28T02:49:53;99387.28;;;20.11;70.41
80938;BME280;70395;51.382;7.074;2023-07-28T02:52:19;99393.94;;;20.15;70.26
80938;BME280;70395;51.382;7.074;2023-07-28T02:54:45;99394.16;;;20.13;70.56
80938;BME280;70395;51.382;7.074;2023-07-28T02:57:10;99399.16;;;20.17;70.42
80938;BME280;70395;51.382;7.074;2023-07-28T02:59:36;99397.25;;;20.17;70.39
80938;BME280;70395;51.382;7.074;2023-07-28T03:02:02;99392.88;;;20.16;70.00
80938;BME280;70395;51.382;7.074;2023-07-28T03:04:31;99398.56;;;20.14;70.54
80938;BME280;70395;51.382;7.074;2023-07-28T03:06:57;99402.31;;;20.13;70.34
80938;BME280;70395;51.382;7.074;2023-07-28T03:09:22;99400.44;;;20.14;70.10
80938;BME280;70395;51.382;7.074;2023-07-28T03:11:48;99405.03;;;20.13;70.39
80938;BME280;70395;51.382;7.074;2023-07-28T03:14:14;99406.72;;;20.14;70.37
80938;BME280;70395;51.382;7.074;2023-07-28T03:16:42;99414.03;;;20.14;70.42
80938;BME280;70395;51.382;7.074;2023-07-28T03:19:08;99408.59;;;20.14;70.54
80938;BME280;70395;51.382;7.074;2023-07-28T03:21:34;99407.56;;;20.15;70.62
80938;BME280;70395;51.382;7.074;2023-07-28T03:24:00;99400.19;;;20.16;70.45
80938;BME280;70395;51.382;7.074;2023-07-28T03:26:25;99408.16;;;20.17;70.31
80938;BME280;70395;51.382;7.074;2023-07-28T03:28:51;99399.97;;;20.17;70.59
80938;BME280;70395;51.382;7.074;2023-07-28T03:31:17;99402.72;;;20.17;70.49
80938;BME280;70395;51.382;7.074;2023-07-28T03:33:43;99403.53;;;20.18;70.43
80938;BME280;70395;51.382;7.074;2023-07-28T03:36:08;99404.59;;;20.17;70.62
80938;BME280;70395;51.382;7.074;2023-07-28T03:38:34;99402.91;;;20.16;70.77
80938;BME280;70395;51.382;7.074;2023-07-28T03:41:00;99411.09;;;20.16;70.86
80938;BME280;70395;51.382;7.074;2023-07-28T03:43:26;99406.25;;;20.18;70.33
80938;BME280;70395;51.382;7.074;2023-07-28T03:45:52;99408.97;;;20.18;70.65
80938;BME280;70395;51.382;7.074;2023-07-28T03:48:18;99414.19;;;20.19;70.41
80938;BME280;70395;51.382;7.074;2023-07-28T03:50:43;99418.34;;;20.22;70.53
80938;BME280;70395;51.382;7.074;2023-07-28T03:53:09;99414.31;;;20.24;70.59
80938;BME280;70395;51.382;7.074;2023-07-28T03:55:35;99418.69;;;20.25;70.41
80938;BME280;70395;51.382;7.074;2023-07-28T03:58:01;99417.63;;;20.27;70.81
80938;BME280;70395;51.382;7.074;2023-07-28T04:00:27;99424.75;;;20.28;70.29
80938;BME280;70395;51.382;7.074;2023-07-28T04:02:52;99421.78;;;20.29;70.34
80938;BME280;70395;51.382;7.074;2023-07-28T04:05:18;99426.16;;;20.30;69.92
80938;BME280;70395;51.382;7.074;2023-07-28T04:07:44;99430.94;;;20.35;70.14
80938;BME280;70395;51.382;7.074;2023-07-28T04:10:10;99423.56;;;20.35;70.36
80938;BME280;70395;51.382;7.074;2023-07-28T04:12:35;99417.91;;;20.37;70.15
80938;BME280;70395;51.382;7.074;2023-07-28T04:15:01;99416.81;;;20.38;69.99
80938;BME280;70395;51.382;7.074;2023-07-28T04:17:27;99422.06;;;20.40;70.33
80938;BME280;70395;51.382;7.074;2023-07-28T04:19:53;99419.09;;;20.41;70.17
80938;BME280;70395;51.382;7.074;2023-07-28T04:22:19;99422.66;;;20.42;70.10
80938;BME280;70395;51.382;7.074;2023-07-28T04:24:47;99419.69;;;20.43;70.07
80938;BME280;70395;51.382;7.074;2023-07-28T04:27:16;99430.34;;;20.45;70.09
80938;BME280;70395;51.382;7.074;2023-07-28T04:29:41;99430.56;;;20.43;70.22
80938;BME280;70395;51.382;7.074;2023-07-28T04:32:07;99429.53;;;20.44;70.21
80938;BME280;70395;51.382;7.074;2023-07-28T04:34:34;99433.31;;;20.43;70.38
80938;BME280;70395;51.382;7.074;2023-07-28T04:37:00;99428.09;;;20.42;70.48
80938;BME280;70395;51.382;7.074;2023-07-28T04:39:25;99430.56;;;20.43;70.33
80938;BME280;70395;51.382;7.074;2023-07-28T04:41:51;99428.69;;;20.44;70.40
80938;BME280;70395;51.382;7.074;2023-07-28T04:44:18;99433.09;;;20.45;70.53
80938;BME280;70395;51.382;7.074;2023-07-28T04:46:44;99439.47;;;20.51;70.57
80938;BME280;70395;51.382;7.074;2023-07-28T04:49:13;99438.16;;;20.53;70.21
80938;BME280;70395;51.382;7.074;2023-07-28T04:51:39;99439.16;;;20.59;70.53
80938;BME280;70395;51.382;7.074;2023-07-28T04:54:05;99434.88;;;20.63;70.12
80938;BME280;70395;51.382;7.074;2023-07-28T04:56:30;99438.19;;;20.65;70.11
80938;BME280;70395;51.382;7.074;2023-07-28T04:58:56;99436.69;;;20.69;69.90
80938;BME280;70395;51.382;7.074;2023-07-28T05:01:24;99433.25;;;20.74;70.08
80938;BME280;70395;51.382;7.074;2023-07-28T05:03:50;99439.41;;;20.81;69.85
80938;BME280;70395;51.382;7.074;2023-07-28T05:06:16;99441.44;;;20.86;70.04
80938;BME280;70395;51.382;7.074;2023-07-28T05:08:42;99444.28;;;20.91;69.93
80938;BME280;70395;51.382;7.074;2023-07-28T05:11:07;99451.97;;;20.95;69.41
80938;BME280;70395;51.382;7.074;2023-07-28T05:13:33;99445.78;;;20.99;69.56
80938;BME280;70395;51.382;7.074;2023-07-28T05:15:59;99441.59;;;21.03;69.53
80938;BME280;70395;51.382;7.074;2023-07-28T05:18:25;99440.03;;;21.08;69.14
80938;BME280;70395;51.382;7.074;2023-07-28T05:20:51;99440.38;;;21.11;69.44
80938;BME280;70395;51.382;7.074;2023-07-28T05:23:17;99436.13;;;21.15;69.28
80938;BME280;70395;51.382;7.074;2023-07-28T05:25:42;99437.19;;;21.14;69.08
80938;BME280;70395;51.382;7.074;2023-07-28T05:28:08;99447.88;;;21.16;68.93
80938;BME280;70395;51.382;7.074;2023-07-28T05:30:34;99448.66;;;21.17;69.04
80938;BME280;70395;51.382;7.074;2023-07-28T05:33:00;99455.78;;;21.18;68.87
80938;BME280;70395;51.382;7.074;2023-07-28T05:35:25;99453.91;;;21.18;68.95
80938;BME280;70395;51.382;7.074;2023-07-28T05:37:51;99458.28;;;21.19;68.78
80938;BME280;70395;51.382;7.074;2023-07-28T05:40:17;99456.38;;;21.20;68.83
80938;BME280;70395;51.382;7.074;2023-07-28T05:42:43;99460.53;;;21.22;68.73
80938;BME280;70395;51.382;7.074;2023-07-28T05:45:09;99467.88;;;21.22;69.09
80938;BME280;70395;51.382;7.074;2023-07-28T05:47:35;99468.47;;;21.24;68.81
80938;BME280;70395;51.382;7.074;2023-07-28T05:50:01;99463.84;;;21.24;68.88
80938;BME280;70395;51.382;7.074;2023-07-28T05:52:27;99469.66;;;21.28;68.81
80938;BME280;70395;51.382;7.074;2023-07-28T05:54:52;99477.13;;;21.33;68.87
80938;BME280;70395;51.382;7.074;2023-07-28T05:57:18;99481.63;;;21.39;68.90
80938;BME280;70395;51.382;7.074;2023-07-28T05:59:44;99481.16;;;21.42;68.62
80938;BME280;70395;51.382;7.074;2023-07-28T06:02:10;99478.41;;;21.42;68.68
80938;BME280;70395;51.382;7.074;2023-07-28T06:04:35;99487.19;;;21.44;68.75
80938;BME280;70395;51.382;7.074;2023-07-28T06:07:02;99482.31;;;21.46;68.43
80938;BME280;70395;51.382;7.074;2023-07-28T06:09:28;99486.00;;;21.52;68.83
80938;BME280;70395;51.382;7.074;2023-07-28T06:11:54;99485.03;;;21.58;68.63
80938;BME280;70395;51.382;7.074;2023-07-28T06:14:19;99489.75;;;21.63;68.20
80938;BME280;70395;51.382;7.074;2023-07-28T06:16:45;99491.75;;;21.68;68.60
80938;BME280;70395;51.382;7.074;2023-07-28T06:19:11;99491.53;;;21.69;68.29
80938;BME280;70395;51.382;7.074;2023-07-28T06:21:37;99497.84;;;21.70;68.57
80938;BME280;70395;51.382;7.074;2023-07-28T06:24:02;99496.41;;;21.67;67.99
80938;BME280;70395;51.382;7.074;2023-07-28T06:26:28;99503.03;;;21.71;68.25
80938;BME280;70395;51.382;7.074;2023-07-28T06:28:54;99502.78;;;21.73;68.23
80938;BME280;70395;51.382;7.074;2023-07-28T06:31:20;99500.44;;;21.77;67.97
80938;BME280;70395;51.382;7.074;2023-07-28T06:33:47;99504.09;;;21.82;67.79
80938;BME280;70395;51.382;7.074;2023-07-28T06:36:13;99508.59;;;21.89;68.38
80938;BME280;70395;51.382;7.074;2023-07-28T06:38:39;99514.19;;;21.94;68.04
80938;BME280;70395;51.382;7.074;2023-07-28T06:41:04;99520.59;;;22.00;67.78
80938;BME280;70395;51.382;7.074;2023-07-28T06:43:30;99525.31;;;22.04;67.47
80938;BME280;70395;51.382;7.074;2023-07-28T06:45:56;99530.03;;;22.09;67.54
80938;BME280;70395;51.382;7.074;2023-07-28T06:48:22;99522.19;;;22.13;67.87
80938;BME280;70395;51.382;7.074;2023-07-28T06:50:47;99530.47;;;22.18;67.82
80938;BME280;70395;51.382;7.074;2023-07-28T06:53:13;99532.47;;;22.23;67.54
80938;BME280;70395;51.382;7.074;2023-07-28T06:55:39;99540.66;;;22.23;67.49
80938;BME280;70395;51.382;7.074;2023-07-28T06:58:06;99535.47;;;22.21;66.99
80938;BME280;70395;51.382;7.074;2023-07-28T07:00:32;99536.78;;;22.19;67.44
80938;BME280;70395;51.382;7.074;2023-07-28T07:02:59;99541.66;;;22.16;66.96
80938;BME280;70395;51.382;7.074;2023-07-28T07:05:25;99542.97;;;22.14;67.03
80938;BME280;70395;51.382;7.074;2023-07-28T07:07:50;99536.19;;;22.16;67.57
80938;BME280;70395;51.382;7.074;2023-07-28T07:10:16;99542.81;;;22.21;67.38
80938;BME280;70395;51.382;7.074;2023-07-28T07:12:42;99544.34;;;22.28;67.39
80938;BME280;70395;51.382;7.074;2023-07-28T07:15:08;99547.75;;;22.36;67.28
80938;BME280;70395;51.382;7.074;2023-07-28T07:17:35;99556.16;;;22.46;66.67
80938;BME280;70395;51.382;7.074;2023-07-28T07:20:00;99554.44;;;22.57;66.90
80938;BME280;70395;51.382;7.074;2023-07-28T07:22:26;99557.84;;;22.65;66.54
80938;BME280;70395;51.382;7.074;2023-07-28T07:24:53;99553.56;;;22.69;66.31
80938;BME280;70395;51.382;7.074;2023-07-28T07:27:19;99555.81;;;22.72;66.30
80938;BME280;70395;51.382;7.074;2023-07-28T07:29:45;99564.59;;;22.74;66.32
80938;BME280;70395;51.382;7.074;2023-07-28T07:32:11;99566.25;;;22.75;65.73
80938;BME280;70395;51.382;7.074;2023-07-28T07:34:37;99557.47;;;22.73;65.93
80938;BME280;70395;51.382;7.074;2023-07-28T07:37:04;99561.94;;;22.79;65.66
80938;BME280;70395;51.382;7.074;2023-07-28T07:39:31;99565.34;;;22.87;66.00
80938;BME280;70395;51.382;7.074;2023-07-28T07:41:59;99568.75;;;22.94;65.68
80938;BME280;70395;51.382;7.074;2023-07-28T07:44:25;99563.13;;;23.01;65.43
80938;BME280;70395;51.382;7.074;2023-07-28T07:46:52;99572.25;;;23.06;65.41
80938;BME280;70395;51.382;7.074;2023-07-28T07:49:18;99573.19;;;23.12;65.38
80938;BME280;70395;51.382;7.074;2023-07-28T07:51:43;99573.59;;;23.21;65.99
80938;BME280;70395;51.382;7.074;2023-07-28T07:54:09;99575.91;;;23.29;65.52
80938;BME280;70395;51.382;7.074;2023-07-28T07:56:35;99582.28;;;23.35;65.28
80938;BME280;70395;51.382;7.074;2023-07-28T07:59:01;99576.31;;;23.38;64.66
80938;BME280;70395;51.382;7.074;2023-07-28T08:01:27;99575.56;;;23.43;64.66
80938;BME280;70395;51.382;7.074;2023-07-28T08:03:52;99581.97;;;23.49;65.06
80938;BME280;70395;51.382;7.074;2023-07-28T08:06:18;99576.59;;;23.54;64.65
80938;BME280;70395;51.382;7.074;2023-07-28T08:08:44;99576.97;;;23.63;64.58
80938;BME280;70395;51.382;7.074;2023-07-28T08:11:11;99581.19;;;23.71;64.24
80938;BME280;70395;51.382;7.074;2023-07-28T08:13:37;99577.44;;;23.77;63.92
80938;BME280;70395;51.382;7.074;2023-07-28T08:16:06;99574.53;;;23.84;63.89
80938;BME280;70395;51.382;7.074;2023-07-28T08:18:32;99582.31;;;23.92;63.81
80938;BME280;70395;51.382;7.074;2023-07-28T08:20:58;99581.88;;;24.01;63.71
80938;BME280;70395;51.382;7.074;2023-07-28T08:23:23;99584.41;;;24.07;63.75
80938;BME280;70395;51.382;7.074;2023-07-28T08:25:49;99581.75;;;24.13;63.30
80938;BME280;70395;51.382;7.074;2023-07-28T08:28:15;99594.34;;;24.14;62.74
80938;BME280;70395;51.382;7.074;2023-07-28T08:30:41;99586.19;;;24.19;63.15
80938;BME280;70395;51.382;7.074;2023-07-28T08:33:06;99593.16;;;24.27;63.16
80938;BME280;70395;51.382;7.074;2023-07-28T08:35:32;99592.41;;;24.32;63.02
80938;BME280;70395;51.382;7.074;2023-07-28T08:37:58;99594.06;;;24.33;63.17
80938;BME280;70395;51.382;7.074;2023-07-28T08:40:25;99596.88;;;24.38;62.97
80938;BME280;70395;51.382;7.074;2023-07-28T08:42:53;99599.41;;;24.45;62.34
80938;BME280;70395;51.382;7.074;2023-07-28T08:45:19;99606.59;;;24.51;62.66
80938;BME280;70395;51.382;7.074;2023-07-28T08:47:46;99604.81;;;24.62;62.23
80938;BME280;70395;51.382;7.074;2023-07-28T08:50:12;99606.81;;;24.72;62.11
80938;BME280;70395;51.382;7.074;2023-07-28T08:52:38;99606.09;;;24.82;62.46
80938;BME280;70395;51.382;7.074;2023-07-28T08:55:04;99615.25;;;24.93;61.97
80938;BME280;70395;51.382;7.074;2023-07-28T08:57:30;99614.53;;;25.03;62.10
80938;BME280;70395;51.382;7.074;2023-07-28T08:59:55;99608.03;;;25.09;61.54
80938;BME280;70395;51.382;7.074;2023-07-28T09:02:21;99614.38;;;25.15;61.09
80938;BME280;70395;51.382;7.074;2023-07-28T09:04:48;99616.09;;;25.21;61.03
80938;BME280;70395;51.382;7.074;2023-07-28T09:07:14;99618.59;;;25.28;60.66
80938;BME280;70395;51.382;7.074;2023-07-28T09:09:40;99615.88;;;25.28;60.09
80938;BME280;70395;51.382;7.074;2023-07-28T09:12:07;99620.00;;;25.30;60.26
80938;BME280;70395;51.382;7.074;2023-07-28T09:14:36;99618.03;;;25.26;60.45
80938;BME280;70395;51.382;7.074;2023-07-28T09:17:13;99621.81;;;25.19;61.21
80938;BME280;70395;51.382;7.074;2023-07-28T09:19:56;99625.91;;;25.17;60.75
80938;BME280;70395;51.382;7.074;2023-07-28T09:22:23;99625.44;;;25.25;60.92
80938;BME280;70395;51.382;7.074;2023-07-28T09:24:50;99632.06;;;25.29;60.66
80938;BME280;70395;51.382;7.074;2023-07-28T09:27:25;99622.28;;;25.39;59.91
80938;BME280;70395;51.382;7.074;2023-07-28T09:29:55;99624.31;;;25.59;59.68
80938;BME280;70395;51.382;7.074;2023-07-28T09:32:32;99627.41;;;25.68;59.62
80938;BME280;70395;51.382;7.074;2023-07-28T09:35:13;99632.31;;;25.66;59.18
80938;BME280;70395;51.382;7.074;2023-07-28T09:37:45;99627.97;;;25.70;59.20
80938;BME280;70395;51.382;7.074;2023-07-28T09:40:17;99626.13;;;25.81;58.66
80938;BME280;70395;51.382;7.074;2023-07-28T09:42:45;99629.81;;;25.97;58.32
80938;BME280;70395;51.382;7.074;2023-07-28T09:45:17;99625.28;;;26.24;58.35
80938;BME280;70395;51.382;7.074;2023-07-28T09:47:46;99630.53;;;26.36;57.92
80938;BME280;70395;51.382;7.074;2023-07-28T09:50:15;99630.00;;;26.39;57.97
80938;BME280;70395;51.382;7.074;2023-07-28T09:52:58;99628.66;;;26.42;57.73
80938;BME280;70395;51.382;7.074;2023-07-28T09:55:28;99635.56;;;26.45;57.38
80938;BME280;70395;51.382;7.074;2023-07-28T09:57:56;99630.78;;;26.29;57.23
80938;BME280;70395;51.382;7.074;2023-07-28T10:00:23;99635.69;;;26.17;57.21
80938;BME280;70395;51.382;7.074;2023-07-28T10:02:50;99631.25;;;26.05;57.08
80938;BME280;70395;51.382;7.074;2023-07-28T10:05:16;99633.38;;;25.98;57.18
80938;BME280;70395;51.382;7.074;2023-07-28T10:07:48;99641.88;;;25.96;57.99
80938;BME280;70395;51.382;7.074;2023-07-28T10:10:15;99635.66;;;26.12;56.90
80938;BME280;70395;51.382;7.074;2023-07-28T10:12:50;99642.59;;;26.25;56.90
80938;BME280;70395;51.382;7.074;2023-07-28T10:15:18;99638.22;;;26.29;57.01
80938;BME280;70395;51.382;7.074;2023-07-28T10:17:54;99642.91;;;26.34;56.69
80938;BME280;70395;51.382;7.074;2023-07-28T10:20:43;99645.75;;;26.49;56.66
80938;BME280;70395;51.382;7.074;2023-07-28T10:23:22;99642.22;;;26.70;56.09
80938;BME280;70395;51.382;7.074;2023-07-28T10:25:59;99644.19;;;26.90;55.73
80938;BME280;70395;51.382;7.074;2023-07-28T10:28:39;99641.72;;;27.04;55.55
80938;BME280;70395;51.382;7.074;2023-07-28T10:31:09;99646.41;;;27.09;55.03
80938;BME280;70395;51.382;7.074;2023-07-28T10:33:48;99644.22;;;27.06;55.33
80938;BME280;70395;51.382;7.074;2023-07-28T10:36:32;99636.28;;;27.20;54.67
80938;BME280;70395;51.382;7.074;2023-07-28T10:39:14;99639.88;;;27.26;54.45
80938;BME280;70395;51.382;7.074;2023-07-28T10:42:07;99652.81;;;27.30;54.08
80938;BME280;70395;51.382;7.074;2023-07-28T10:44:34;99656.13;;;27.43;53.66
80938;BME280;70395;51.382;7.074;2023-07-28T10:47:01;99659.66;;;27.64;53.90
80938;BME280;70395;51.382;7.074;2023-07-28T10:49:28;99655.81;;;27.81;53.78
80938;BME280;70395;51.382;7.074;2023-07-28T10:51:55;99655.50;;;28.04;53.74
80938;BME280;70395;51.382;7.074;2023-07-28T10:54:21;99661.75;;;28.25;52.91
80938;BME280;70395;51.382;7.074;2023-07-28T10:56:47;99654.00;;;28.38;52.87
80938;BME280;70395;51.382;7.074;2023-07-28T10:59:14;99646.56;;;28.43;51.91
80938;BME280;70395;51.382;7.074;2023-07-28T11:01:41;99659.50;;;28.48;52.04
80938;BME280;70395;51.382;7.074;2023-07-28T11:04:19;99650.91;;;28.55;51.56
80938;BME280;70395;51.382;7.074;2023-07-28T11:06:48;99652.47;;;28.72;50.55
80938;BME280;70395;51.382;7.074;2023-07-28T11:09:17;99641.25;;;29.08;50.42
80938;BME280;70395;51.382;7.074;2023-07-28T11:11:45;99648.13;;;30.06;49.09
80938;BME280;70395;51.382;7.074;2023-07-28T11:14:11;99651.19;;;31.11;46.91
80938;BME280;70395;51.382;7.074;2023-07-28T11:16:41;99652.69;;;31.37;46.63
80938;BME280;70395;51.382;7.074;2023-07-28T11:19:10;99649.34;;;31.40;46.47
80938;BME280;70395;51.382;7.074;2023-07-28T11:21:41;99643.13;;;31.29;46.40
80938;BME280;70395;51.382;7.074;2023-07-28T11:24:09;99641.22;;;31.10;45.97
80938;BME280;70395;51.382;7.074;2023-07-28T11:26:38;99641.88;;;30.83;46.45
80938;BME280;70395;51.382;7.074;2023-07-28T11:29:05;99645.69;;;30.48;46.88
80938;BME280;70395;51.382;7.074;2023-07-28T11:31:32;99641.97;;;30.09;46.94
80938;BME280;70395;51.382;7.074;2023-07-28T11:33:59;99649.03;;;29.71;47.15
80938;BME280;70395;51.382;7.074;2023-07-28T11:36:27;99639.09;;;29.35;48.43
80938;BME280;70395;51.382;7.074;2023-07-28T11:38:55;99646.50;;;29.05;48.86
80938;BME280;70395;51.382;7.074;2023-07-28T11:41:23;99641.84;;;29.00;48.95
80938;BME280;70395;51.382;7.074;2023-07-28T11:43:50;99644.63;;;29.65;48.73
80938;BME280;70395;51.382;7.074;2023-07-28T11:46:35;99642.59;;;30.06;47.36
80938;BME280;70395;51.382;7.074;2023-07-28T11:49:16;99651.16;;;30.29;47.12
80938;BME280;70395;51.382;7.074;2023-07-28T11:51:48;99644.97;;;30.62;46.26
80938;BME280;70395;51.382;7.074;2023-07-28T11:54:16;99640.09;;;30.73;46.07
80938;BME280;70395;51.382;7.074;2023-07-28T11:56:46;99641.53;;;31.09;45.35
80938;BME280;70395;51.382;7.074;2023-07-28T11:59:16;99647.28;;;31.12;44.53
80938;BME280;70395;51.382;7.074;2023-07-28T12:02:03;99644.72;;;30.77;45.17
80938;BME280;70395;51.382;7.074;2023-07-28T12:04:38;99644.94;;;30.42;45.13
80938;BME280;70395;51.382;7.074;2023-07-28T12:07:16;99643.69;;;30.05;45.93
80938;BME280;70395;51.382;7.074;2023-07-28T12:12:44;99643.25;;;29.32;47.76
80938;BME280;70395;51.382;7.074;2023-07-28T12:15:20;99636.03;;;29.01;48.27
80938;BME280;70395;51.382;7.074;2023-07-28T12:18:10;99641.44;;;28.72;48.53
80938;BME280;70395;51.382;7.074;2023-07-28T12:20:47;99640.75;;;28.50;49.07
80938;BME280;70395;51.382;7.074;2023-07-28T12:23:17;99644.06;;;28.37;48.68
80938;BME280;70395;51.382;7.074;2023-07-28T12:25:44;99646.06;;;28.20;48.92
80938;BME280;70395;51.382;7.074;2023-07-28T12:28:10;99636.47;;;28.02;49.55
80938;BME280;70395;51.382;7.074;2023-07-28T12:30:37;99627.44;;;27.91;50.54
80938;BME280;70395;51.382;7.074;2023-07-28T12:33:04;99632.31;;;28.10;50.62
80938;BME280;70395;51.382;7.074;2023-07-28T12:35:32;99634.22;;;28.81;49.76
80938;BME280;70395;51.382;7.074;2023-07-28T12:38:04;99642.81;;;29.85;47.63
80938;BME280;70395;51.382;7.074;2023-07-28T12:40:32;99635.84;;;30.80;45.81
80938;BME280;70395;51.382;7.074;2023-07-28T12:43:00;99641.34;;;31.39;44.47
80938;BME280;70395;51.382;7.074;2023-07-28T12:45:27;99642.81;;;32.12;43.76
80938;BME280;70395;51.382;7.074;2023-07-28T12:47:53;99640.91;;;33.01;42.60
80938;BME280;70395;51.382;7.074;2023-07-28T12:50:23;99640.84;;;33.93;41.17
80938;BME280;70395;51.382;7.074;2023-07-28T12:52:50;99641.34;;;34.71;40.05
80938;BME280;70395;51.382;7.074;2023-07-28T12:55:17;99646.63;;;35.09;39.61
80938;BME280;70395;51.382;7.074;2023-07-28T12:57:44;99642.16;;;35.25;39.19
80938;BME280;70395;51.382;7.074;2023-07-28T13:00:11;99644.16;;;34.89;38.39
80938;BME280;70395;51.382;7.074;2023-07-28T13:02:43;99648.63;;;34.23;39.56
80938;BME280;70395;51.382;7.074;2023-07-28T13:05:12;99646.56;;;33.65;40.22
80938;BME280;70395;51.382;7.074;2023-07-28T13:07:39;99648.22;;;33.20;40.77
80938;BME280;70395;51.382;7.074;2023-07-28T13:10:08;99650.16;;;32.73;41.44